createdAt,value
2018-11-21T00:00:25.842Z,21.50
2018-11-21T00:03:13.641Z,21.50
2018-11-21T00:06:01.405Z,21.40
2018-11-21T00:08:49.147Z,21.40
2018-11-21T00:11:36.931Z,21.40
2018-11-21T00:14:24.713Z,21.40
2018-11-21T00:17:12.541Z,21.40
2018-11-21T00:22:49.606Z,21.40
2018-11-21T00:25:37.359Z,21.40
2018-11-21T00:28:25.193Z,21.40
2018-11-21T00:31:12.970Z,21.40
2018-11-21T00:34:00.740Z,21.40
2018-11-21T00:36:48.509Z,21.40
2018-11-21T00:39:36.253Z,21.40
2018-11-21T00:42:24.075Z,21.40
2018-11-21T00:45:12.030Z,21.40
2018-11-21T00:47:59.808Z,21.30
2018-11-21T00:50:47.654Z,21.40
2018-11-21T00:53:35.434Z,21.40
2018-11-21T00:56:23.181Z,21.40
2018-11-21T00:59:10.935Z,21.30
2018-11-21T01:01:58.709Z,21.30
2018-11-21T01:04:46.489Z,21.30
2018-11-21T01:07:34.238Z,21.30
2018-11-21T01:10:22.006Z,21.30
2018-11-21T01:13:09.872Z,21.30
2018-11-21T01:15:57.630Z,21.30
2018-11-21T01:18:45.508Z,21.30
2018-11-21T01:21:33.261Z,21.30
2018-11-21T01:24:21.043Z,21.30
2018-11-21T01:27:08.834Z,21.30
2018-11-21T01:29:56.565Z,21.30
2018-11-21T01:32:44.374Z,21.30
2018-11-21T01:35:32.280Z,21.30
2018-11-21T01:38:20.043Z,21.30
2018-11-21T01:41:07.822Z,21.30
2018-11-21T01:43:55.604Z,21.30
2018-11-21T01:46:43.396Z,21.30
2018-11-21T01:49:31.187Z,21.30
2018-11-21T01:52:18.972Z,21.20
2018-11-21T01:55:06.832Z,21.20
2018-11-21T01:58:31.742Z,21.20
2018-11-21T02:01:19.607Z,21.20
2018-11-21T02:04:07.372Z,21.20
2018-11-21T02:06:55.133Z,21.20
2018-11-21T02:09:43.069Z,21.20
2018-11-21T02:12:30.922Z,21.20
2018-11-21T02:15:18.691Z,21.20
2018-11-21T02:18:24.335Z,21.20
2018-11-21T02:21:12.101Z,21.20
2018-11-21T02:23:59.919Z,21.20
2018-11-21T02:26:47.691Z,21.20
2018-11-21T02:29:35.502Z,21.20
2018-11-21T02:32:23.281Z,21.20
2018-11-21T02:35:11.099Z,21.20
2018-11-21T02:37:58.941Z,21.20
2018-11-21T02:40:46.764Z,21.20
2018-11-21T02:43:34.590Z,21.20
2018-11-21T02:49:10.161Z,21.20
2018-11-21T02:57:00.906Z,21.20
2018-11-21T02:59:41.798Z,21.10
2018-11-21T03:05:27.715Z,21.10
2018-11-21T03:08:08.117Z,21.10
2018-11-21T03:10:48.964Z,21.10
2018-11-21T03:13:30.848Z,21.10
2018-11-21T03:18:23.733Z,21.10
2018-11-21T03:21:05.059Z,21.10
2018-11-21T03:23:45.972Z,21.10
2018-11-21T03:26:26.898Z,21.10
2018-11-21T03:29:07.928Z,21.10
2018-11-21T03:31:48.524Z,21.10
2018-11-21T03:34:29.786Z,21.10
2018-11-21T03:37:10.558Z,21.10
2018-11-21T03:39:39.191Z,21.10
2018-11-21T03:42:27.010Z,21.10
2018-11-21T03:45:14.783Z,21.10
2018-11-21T03:48:02.556Z,21.10
2018-11-21T03:50:50.310Z,21.10
2018-11-21T03:53:38.133Z,21.10
2018-11-21T03:56:25.872Z,21.10
2018-11-21T03:59:13.969Z,21.10
2018-11-21T04:04:51.034Z,21.10
2018-11-21T04:07:39.112Z,21.10
2018-11-21T04:10:26.865Z,21.10
2018-11-21T04:13:14.698Z,21.10
2018-11-21T04:16:02.458Z,21.10
2018-11-21T04:18:54.283Z,21.10
2018-11-21T04:21:42.060Z,21.00
2018-11-21T04:24:28.656Z,21.00
2018-11-21T04:27:16.446Z,21.00
2018-11-21T04:30:04.753Z,21.00
2018-11-21T04:32:52.589Z,21.00
2018-11-21T04:35:33.531Z,21.00
2018-11-21T04:38:14.541Z,21.00
2018-11-21T04:40:55.254Z,21.00
2018-11-21T04:43:36.114Z,21.00
2018-11-21T04:46:17.228Z,21.00
2018-11-21T04:48:58.111Z,21.00
2018-11-21T04:51:38.755Z,21.00
2018-11-21T04:54:19.366Z,21.00
2018-11-21T04:56:59.991Z,21.00
2018-11-21T04:59:40.957Z,21.00
2018-11-21T05:05:40.838Z,21.00
2018-11-21T05:08:21.387Z,21.00
2018-11-21T05:11:01.818Z,21.00
2018-11-21T05:13:42.905Z,21.00
2018-11-21T05:16:23.296Z,21.00
2018-11-21T05:19:04.368Z,21.00
2018-11-21T05:21:44.714Z,21.00
2018-11-21T05:24:25.272Z,21.00
2018-11-21T05:27:05.567Z,21.00
2018-11-21T05:29:46.025Z,21.00
2018-11-21T05:32:26.676Z,20.90
2018-11-21T05:35:07.382Z,21.00
2018-11-21T05:37:47.672Z,21.00
2018-11-21T05:40:28.071Z,20.90
2018-11-21T05:43:08.527Z,20.90
2018-11-21T05:45:49.073Z,20.90
2018-11-21T05:48:29.353Z,20.90
2018-11-21T05:51:09.766Z,21.00
2018-11-21T05:53:50.354Z,20.90
2018-11-21T05:56:31.220Z,20.90
2018-11-21T05:59:12.064Z,20.90
2018-11-21T06:01:52.957Z,20.90
2018-11-21T06:04:33.681Z,20.90
2018-11-21T06:07:14.069Z,20.90
2018-11-21T06:09:55.525Z,20.90
2018-11-21T06:12:36.209Z,20.90
2018-11-21T06:15:16.729Z,20.90
2018-11-21T06:17:57.074Z,20.90
2018-11-21T06:23:42.798Z,20.90
2018-11-21T06:26:23.845Z,20.90
2018-11-21T06:29:04.701Z,20.90
2018-11-21T06:31:45.289Z,20.90
2018-11-21T06:34:29.134Z,20.90
2018-11-21T06:37:06.975Z,20.90
2018-11-21T06:39:47.458Z,20.90
2018-11-21T06:42:28.771Z,20.90
2018-11-21T06:45:09.603Z,21.00
2018-11-21T06:47:50.072Z,21.00
2018-11-21T06:50:31.278Z,21.00
2018-11-21T06:53:11.767Z,21.00
2018-11-21T06:55:53.257Z,21.00
2018-11-21T06:58:34.270Z,21.10
2018-11-21T07:01:14.777Z,21.10
2018-11-21T07:03:55.378Z,21.10
2018-11-21T07:06:35.876Z,21.10
2018-11-21T07:09:16.375Z,21.10
2018-11-21T07:11:57.941Z,21.10
2018-11-21T07:14:38.738Z,21.10
2018-11-21T07:17:19.197Z,21.10
2018-11-21T07:20:00.758Z,21.10
2018-11-21T07:22:41.491Z,21.20
2018-11-21T07:25:23.067Z,21.20
2018-11-21T07:28:03.972Z,21.20
2018-11-21T07:30:44.469Z,21.20
2018-11-21T07:33:24.835Z,21.20
2018-11-21T07:36:06.441Z,21.20
2018-11-21T07:38:48.411Z,21.20
2018-11-21T07:41:29.565Z,21.20
2018-11-21T07:44:10.509Z,21.20
2018-11-21T07:46:50.812Z,21.20
2018-11-21T07:49:31.841Z,21.20
2018-11-21T07:52:12.913Z,21.30
2018-11-21T07:54:53.379Z,21.30
2018-11-21T08:01:02.332Z,21.30
2018-11-21T08:04:07.889Z,21.30
2018-11-21T08:07:10.645Z,21.30
2018-11-21T08:10:10.722Z,21.30
2018-11-21T08:13:04.453Z,21.30
2018-11-21T08:16:10.171Z,21.30
2018-11-21T08:19:02.259Z,21.30
2018-11-21T08:22:01.876Z,21.40
2018-11-21T08:25:02.216Z,21.40
2018-11-21T08:28:01.991Z,21.40
2018-11-21T08:30:43.023Z,21.40
2018-11-21T08:33:24.168Z,21.40
2018-11-21T08:36:04.718Z,21.40
2018-11-21T08:38:45.906Z,21.40
2018-11-21T08:41:26.200Z,21.40
2018-11-21T08:44:07.473Z,21.40
2018-11-21T08:46:48.539Z,21.40
2018-11-21T08:49:29.681Z,21.40
2018-11-21T08:52:10.017Z,21.40
2018-11-21T08:54:54.006Z,21.40
2018-11-21T08:57:34.373Z,21.40
2018-11-21T09:00:15.123Z,21.40
2018-11-21T09:02:55.999Z,21.40
2018-11-21T09:05:36.709Z,21.50
2018-11-21T09:08:17.287Z,21.50
2018-11-21T09:10:57.948Z,21.50
2018-11-21T09:13:38.688Z,21.40
2018-11-21T09:16:18.954Z,21.50
2018-11-21T09:18:59.551Z,21.50
2018-11-21T09:21:39.959Z,21.50
2018-11-21T09:24:20.638Z,21.50
2018-11-21T09:27:01.207Z,21.50
2018-11-21T09:29:41.554Z,21.50
2018-11-21T09:32:22.715Z,21.50
2018-11-21T09:35:03.118Z,21.50
2018-11-21T09:37:46.793Z,21.50
2018-11-21T09:40:27.947Z,21.50
2018-11-21T09:43:08.456Z,21.50
2018-11-21T09:45:49.137Z,21.50
2018-11-21T09:48:29.540Z,21.50
2018-11-21T09:51:10.133Z,21.50
2018-11-21T09:53:51.186Z,21.50
2018-11-21T09:56:31.675Z,21.60
2018-11-21T09:59:12.124Z,21.50
2018-11-21T10:05:01.458Z,21.60
2018-11-21T10:07:42.930Z,21.60
2018-11-21T10:10:23.870Z,21.60
2018-11-21T10:13:04.253Z,21.60
2018-11-21T10:15:44.667Z,21.60
2018-11-21T10:18:25.055Z,21.60
2018-11-21T10:21:06.930Z,21.60
2018-11-21T10:23:47.836Z,21.60
2018-11-21T10:26:28.218Z,21.60
2018-11-21T10:29:09.312Z,21.60
2018-11-21T10:31:50.391Z,21.60
2018-11-21T10:34:31.289Z,21.60
2018-11-21T10:37:11.871Z,21.60
2018-11-21T10:39:52.856Z,21.60
2018-11-21T10:42:33.414Z,21.60
2018-11-21T10:45:13.834Z,21.60
2018-11-21T10:47:54.363Z,21.60
2018-11-21T10:50:34.644Z,21.60
2018-11-21T10:53:15.457Z,21.70
2018-11-21T10:55:56.231Z,21.60
2018-11-21T10:58:36.583Z,21.70
2018-11-21T11:01:36.478Z,21.70
2018-11-21T11:04:30.085Z,21.70
2018-11-21T11:07:39.464Z,21.70
2018-11-21T11:10:32.954Z,21.70
2018-11-21T11:13:35.402Z,21.70
2018-11-21T11:16:32.857Z,21.70
2018-11-21T11:19:32.304Z,21.70
2018-11-21T11:22:32.632Z,21.60
2018-11-21T11:28:55.311Z,21.70
2018-11-21T11:31:55.563Z,21.70
2018-11-21T11:34:55.896Z,21.70
2018-11-21T11:37:55.553Z,21.70
2018-11-21T11:40:55.817Z,21.70
2018-11-21T11:44:01.460Z,21.70
2018-11-21T11:47:00.850Z,21.70
2018-11-21T11:49:51.871Z,21.70
2018-11-21T11:52:51.492Z,21.70
2018-11-21T11:55:52.734Z,21.70
2018-11-21T12:01:55.833Z,21.70
2018-11-21T12:05:02.741Z,21.70
2018-11-21T12:08:09.654Z,21.70
2018-11-21T12:11:16.577Z,21.70
2018-11-21T12:14:23.819Z,21.70
2018-11-21T12:17:31.437Z,21.70
2018-11-21T12:20:37.914Z,21.70
2018-11-21T12:23:44.728Z,21.70
2018-11-21T12:26:51.667Z,21.70
2018-11-21T12:30:00.797Z,21.70
2018-11-21T12:33:07.716Z,21.70
2018-11-21T12:36:14.656Z,21.70
2018-11-21T12:39:21.572Z,21.70
2018-11-21T12:42:28.512Z,21.70
2018-11-21T12:45:35.420Z,21.70
2018-11-21T12:48:42.366Z,21.70
2018-11-21T12:51:49.279Z,21.70
2018-11-21T12:54:56.467Z,21.60
2018-11-21T12:58:03.484Z,21.60
2018-11-21T13:01:10.401Z,21.60
2018-11-21T13:04:05.667Z,21.70
2018-11-21T13:07:13.004Z,21.60
2018-11-21T13:10:19.937Z,21.60
2018-11-21T13:13:26.908Z,21.60
2018-11-21T13:16:33.869Z,21.60
2018-11-21T13:19:40.805Z,21.60
2018-11-21T13:22:47.732Z,21.60
2018-11-21T13:25:54.635Z,21.60
2018-11-21T13:29:01.581Z,21.60
2018-11-21T13:32:08.579Z,21.50
2018-11-21T13:35:15.488Z,21.50
2018-11-21T13:38:23.362Z,21.50
2018-11-21T13:41:17.580Z,21.50
2018-11-21T13:44:24.549Z,21.50
2018-11-21T13:47:31.498Z,21.50
2018-11-21T13:54:04.516Z,21.50
2018-11-21T13:56:53.445Z,21.40
2018-11-21T13:59:40.080Z,21.40
2018-11-21T14:02:27.862Z,21.40
2018-11-21T14:05:15.677Z,21.40
2018-11-21T14:08:03.496Z,21.40
2018-11-21T14:10:51.267Z,21.40
2018-11-21T14:14:01.396Z,21.40
2018-11-21T14:16:46.061Z,21.40
2018-11-21T14:19:33.861Z,21.40
2018-11-21T14:22:21.634Z,21.40
2018-11-21T14:25:10.425Z,21.40
2018-11-21T14:27:58.178Z,21.40
2018-11-21T14:30:45.941Z,21.30
2018-11-21T14:33:34.800Z,21.30
2018-11-21T14:36:21.524Z,21.30
2018-11-21T14:39:10.146Z,21.30
2018-11-21T14:41:57.894Z,21.30
2018-11-21T14:44:47.111Z,21.30
2018-11-21T14:47:34.859Z,21.30
2018-11-21T14:50:26.576Z,21.30
2018-11-21T14:53:14.342Z,21.20
2018-11-21T14:56:02.124Z,21.20
2018-11-21T15:02:20.790Z,21.20
2018-11-21T15:05:09.293Z,21.20
2018-11-21T15:07:57.248Z,21.20
2018-11-21T15:10:45.035Z,21.20
2018-11-21T15:13:33.025Z,21.20
2018-11-21T15:16:20.830Z,21.20
2018-11-21T15:19:08.608Z,21.20
2018-11-21T15:21:56.613Z,21.20
2018-11-21T15:24:44.415Z,21.20
2018-11-21T15:27:32.220Z,21.20
2018-11-21T15:30:39.533Z,21.20
2018-11-21T15:33:27.322Z,21.20
2018-11-21T15:36:15.128Z,21.20
2018-11-21T15:39:04.503Z,21.10
2018-11-21T15:41:52.281Z,21.20
2018-11-21T15:44:40.341Z,21.10
2018-11-21T15:47:28.123Z,21.10
2018-11-21T15:50:16.859Z,21.10
2018-11-21T15:55:58.629Z,21.10
2018-11-21T15:58:47.369Z,21.10
